createdAt,value
2022-10-15T00:03:43.700Z,14.30
2022-10-15T00:07:45.546Z,14.20
2022-10-15T00:11:47.450Z,14.10
2022-10-15T00:15:49.005Z,14.00
2022-10-15T00:19:50.594Z,14.10
2022-10-15T00:23:52.548Z,14.00
2022-10-15T00:27:54.194Z,13.90
2022-10-15T00:31:59.192Z,13.90
2022-10-15T00:36:02.331Z,13.90
2022-10-15T00:40:04.286Z,13.90
2022-10-15T00:44:21.281Z,13.80
2022-10-15T00:48:23.087Z,13.70
2022-10-15T00:52:32.567Z,13.70
2022-10-15T00:56:35.685Z,13.80
2022-10-15T01:00:37.388Z,13.80
2022-10-15T01:04:39.353Z,13.80
2022-10-15T01:08:41.002Z,13.70
2022-10-15T01:12:42.499Z,13.80
2022-10-15T01:16:47.219Z,13.70
2022-10-15T01:21:02.501Z,13.70
2022-10-15T01:25:14.168Z,13.80
2022-10-15T01:29:15.948Z,13.70
2022-10-15T01:33:20.584Z,13.70
2022-10-15T01:37:32.102Z,13.70
2022-10-15T01:41:43.202Z,13.60
2022-10-15T01:45:50.428Z,13.70
2022-10-15T01:49:53.421Z,13.80
2022-10-15T01:53:55.094Z,13.70
2022-10-15T01:57:57.791Z,13.70
2022-10-15T02:01:59.540Z,13.70
2022-10-15T02:06:04.252Z,13.70
2022-10-15T02:10:21.023Z,13.70
2022-10-15T02:14:37.565Z,13.70
2022-10-15T02:18:58.064Z,13.70
2022-10-15T02:23:06.840Z,13.70
2022-10-15T02:27:09.056Z,13.70
2022-10-15T02:31:12.166Z,13.70
2022-10-15T02:35:14.414Z,13.70
2022-10-15T02:39:18.989Z,13.70
2022-10-15T02:43:21.784Z,13.70
2022-10-15T02:51:25.105Z,13.60
2022-10-15T02:55:26.957Z,13.60
2022-10-15T02:59:28.590Z,13.60
2022-10-15T03:03:30.536Z,13.70
2022-10-15T03:07:32.184Z,13.60
2022-10-15T03:11:34.066Z,13.70
2022-10-15T03:15:36.398Z,13.70
2022-10-15T03:19:37.909Z,13.60
2022-10-15T03:23:39.887Z,13.70
2022-10-15T03:27:41.377Z,13.60
2022-10-15T03:31:42.956Z,13.60
2022-10-15T03:35:45.316Z,13.60
2022-10-15T03:39:46.885Z,13.50
2022-10-15T03:43:48.558Z,13.60
2022-10-15T03:47:50.404Z,13.60
2022-10-15T03:51:51.982Z,13.50
2022-10-15T03:55:53.527Z,13.50
2022-10-15T03:59:55.112Z,13.50
2022-10-15T04:03:56.756Z,13.50
2022-10-15T04:07:58.326Z,13.50
2022-10-15T04:11:59.878Z,13.50
2022-10-15T04:16:04.032Z,13.40
2022-10-15T04:20:05.764Z,13.50
2022-10-15T04:24:07.739Z,13.40
2022-10-15T04:28:09.416Z,13.30
2022-10-15T04:32:14.074Z,13.30
2022-10-15T04:40:18.611Z,13.30
2022-10-15T04:44:20.176Z,13.30
2022-10-15T04:48:21.702Z,13.30
2022-10-15T04:52:23.484Z,13.30
2022-10-15T04:56:25.119Z,13.30
2022-10-15T05:00:26.885Z,13.30
2022-10-15T05:04:28.893Z,13.20
2022-10-15T05:08:31.516Z,13.20
2022-10-15T05:12:33.162Z,13.10
2022-10-15T05:16:34.871Z,13.00
2022-10-15T05:20:36.456Z,12.90
2022-10-15T05:24:38.014Z,12.90
2022-10-15T05:28:39.665Z,12.80
2022-10-15T05:32:44.362Z,12.80
2022-10-15T05:36:45.942Z,12.70
2022-10-15T05:40:48.516Z,12.70
2022-10-15T05:44:50.206Z,12.60
2022-10-15T05:48:52.702Z,12.70
2022-10-15T05:52:54.331Z,12.60
2022-10-15T05:56:55.958Z,12.60
2022-10-15T06:00:58.744Z,12.50
2022-10-15T06:05:00.416Z,12.30
2022-10-15T06:09:02.060Z,12.20
2022-10-15T06:13:04.389Z,12.30
2022-10-15T06:17:06.093Z,12.30
2022-10-15T06:21:08.145Z,12.30
2022-10-15T06:25:09.753Z,12.30
2022-10-15T06:29:11.380Z,12.30
2022-10-15T06:33:13.130Z,12.30
2022-10-15T06:37:14.753Z,12.40
2022-10-15T06:41:17.085Z,12.40
2022-10-15T06:45:21.036Z,12.40
2022-10-15T06:49:23.589Z,12.50
2022-10-15T06:53:25.244Z,12.60
2022-10-15T06:57:30.087Z,12.70
2022-10-15T07:01:31.868Z,12.70
2022-10-15T07:05:34.331Z,12.80
2022-10-15T07:09:36.880Z,12.90
2022-10-15T07:13:38.637Z,13.10
2022-10-15T07:17:40.370Z,13.30
2022-10-15T07:21:42.063Z,13.50
2022-10-15T07:25:43.983Z,13.60
2022-10-15T07:29:45.496Z,13.50
2022-10-15T07:33:47.119Z,13.70
2022-10-15T07:37:50.624Z,13.90
2022-10-15T07:41:52.256Z,14.20
2022-10-15T07:45:53.960Z,14.20
2022-10-15T07:49:55.554Z,14.20
2022-10-15T07:53:57.185Z,14.30
2022-10-15T07:57:58.994Z,14.40
2022-10-15T08:02:00.581Z,14.50
2022-10-15T08:06:06.532Z,14.50
2022-10-15T08:10:09.769Z,14.60
2022-10-15T08:14:11.471Z,14.70
2022-10-15T08:18:13.191Z,14.80
2022-10-15T08:22:14.865Z,14.80
2022-10-15T08:26:16.452Z,14.90
2022-10-15T08:30:18.011Z,15.00
2022-10-15T08:34:25.793Z,15.20
2022-10-15T08:38:27.365Z,15.20
2022-10-15T08:42:35.199Z,15.30
2022-10-15T08:46:41.750Z,15.50
2022-10-15T08:51:04.749Z,15.60
2022-10-15T08:55:06.693Z,15.90
2022-10-15T08:59:20.947Z,16.20
2022-10-15T09:03:25.723Z,16.40
2022-10-15T09:07:31.478Z,16.50
2022-10-15T09:11:51.945Z,16.70
2022-10-15T09:15:57.976Z,17.00
2022-10-15T09:20:03.744Z,17.10
2022-10-15T09:24:06.558Z,16.90
2022-10-15T09:28:11.461Z,16.80
2022-10-15T09:32:17.313Z,17.00
2022-10-15T09:36:28.066Z,17.20
2022-10-15T09:40:44.474Z,17.10
2022-10-15T09:44:47.687Z,17.40
2022-10-15T09:49:08.247Z,17.40
2022-10-15T09:53:24.623Z,17.50
2022-10-15T09:57:32.417Z,17.40
2022-10-15T10:01:34.307Z,17.50
2022-10-15T10:05:38.184Z,17.50
2022-10-15T10:09:52.214Z,17.50
2022-10-15T10:13:55.059Z,17.70
2022-10-15T10:17:57.193Z,17.70
2022-10-15T10:22:21.328Z,18.00
2022-10-15T10:26:24.630Z,17.90
2022-10-15T10:30:26.808Z,18.00
2022-10-15T10:34:29.834Z,18.00
2022-10-15T10:38:31.438Z,18.10
2022-10-15T10:42:34.078Z,18.20
2022-10-15T10:46:35.781Z,18.30
2022-10-15T10:50:40.744Z,18.30
2022-10-15T10:58:43.989Z,18.60
2022-10-15T11:02:45.932Z,18.50
2022-10-15T11:06:57.227Z,18.50
2022-10-15T11:10:58.816Z,18.60
2022-10-15T11:15:00.515Z,18.60
2022-10-15T11:19:43.917Z,18.80
2022-10-15T11:23:53.620Z,18.60
2022-10-15T11:28:23.466Z,18.60
2022-10-15T11:32:54.680Z,18.90
2022-10-15T11:37:28.743Z,18.90
2022-10-15T11:41:33.366Z,18.80
2022-10-15T11:45:48.801Z,19.00
2022-10-15T11:50:05.696Z,18.90
2022-10-15T11:54:12.842Z,18.90
2022-10-15T11:58:30.383Z,19.10
2022-10-15T12:02:40.712Z,19.30
2022-10-15T12:06:45.590Z,19.30
2022-10-15T12:10:47.685Z,19.50
2022-10-15T12:14:53.074Z,19.60
2022-10-15T12:19:09.980Z,19.60
2022-10-15T12:23:44.120Z,19.20
2022-10-15T12:27:48.630Z,19.20
2022-10-15T12:31:52.955Z,19.00
2022-10-15T12:36:02.707Z,19.10
2022-10-15T12:40:07.523Z,19.20
2022-10-15T12:44:18.999Z,19.60
2022-10-15T12:48:22.360Z,19.60
2022-10-15T12:52:43.284Z,19.60
2022-10-15T12:56:47.741Z,19.50
2022-10-15T13:00:52.355Z,19.50
2022-10-15T13:04:55.829Z,19.60
2022-10-15T13:09:03.873Z,19.50
2022-10-15T13:13:07.730Z,19.70
2022-10-15T13:17:17.028Z,19.70
2022-10-15T13:21:43.983Z,19.70
2022-10-15T13:25:51.850Z,19.70
2022-10-15T13:29:59.990Z,19.90
2022-10-15T13:34:09.446Z,19.90
2022-10-15T13:38:22.284Z,19.70
2022-10-15T13:42:24.900Z,19.70
2022-10-15T13:46:30.161Z,19.70
2022-10-15T13:50:37.676Z,19.70
2022-10-15T13:54:44.724Z,19.50
2022-10-15T14:03:54.164Z,19.30
2022-10-15T14:07:55.826Z,19.30
2022-10-15T14:12:02.211Z,18.80
2022-10-15T14:16:14.747Z,18.60
2022-10-15T14:20:27.665Z,18.60
2022-10-15T14:24:45.871Z,18.50
2022-10-15T14:28:50.897Z,18.40
2022-10-15T14:32:52.862Z,18.30
2022-10-15T14:36:54.482Z,18.40
2022-10-15T14:40:57.125Z,18.50
2022-10-15T14:45:10.239Z,18.50
2022-10-15T14:49:26.959Z,18.60
2022-10-15T14:53:31.039Z,18.60
2022-10-15T14:57:37.131Z,18.60
2022-10-15T15:01:40.021Z,18.50
2022-10-15T15:06:05.841Z,18.50
2022-10-15T15:10:08.929Z,18.50
2022-10-15T15:14:24.852Z,18.40
2022-10-15T15:18:27.921Z,18.40
2022-10-15T15:22:30.915Z,18.40
2022-10-15T15:26:32.512Z,18.40
2022-10-15T15:30:34.571Z,18.40
2022-10-15T15:34:36.215Z,18.30
2022-10-15T15:38:37.809Z,18.30
2022-10-15T15:42:39.965Z,18.20
2022-10-15T15:46:42.674Z,18.20
2022-10-15T15:50:44.380Z,18.20
2022-10-15T15:54:49.128Z,18.10
2022-10-15T15:58:51.657Z,17.20
2022-10-15T16:02:55.581Z,16.50
2022-10-15T16:06:59.604Z,16.40
2022-10-15T16:11:05.053Z,16.20
2022-10-15T16:15:09.032Z,16.20
2022-10-15T16:19:13.905Z,16.00
2022-10-15T16:23:16.111Z,16.00
2022-10-15T16:27:17.864Z,16.20
2022-10-15T16:31:36.381Z,16.20
2022-10-15T16:35:38.640Z,16.20
2022-10-15T16:39:40.240Z,16.20
2022-10-15T16:43:41.910Z,16.10
2022-10-15T16:47:43.790Z,16.00
2022-10-15T16:51:45.445Z,16.00
2022-10-15T16:55:47.149Z,15.90
2022-10-15T16:59:48.861Z,16.10
2022-10-15T17:03:50.944Z,16.00
2022-10-15T17:07:52.552Z,15.90
2022-10-15T17:11:54.294Z,15.90
2022-10-15T17:15:59.189Z,15.80
2022-10-15T17:20:02.955Z,15.70
2022-10-15T17:24:06.095Z,15.70
2022-10-15T17:28:11.338Z,15.70
2022-10-15T17:32:15.586Z,15.60
2022-10-15T17:36:18.198Z,15.60
2022-10-15T17:40:19.984Z,15.50
2022-10-15T17:44:21.737Z,15.50
2022-10-15T17:48:23.369Z,15.50
2022-10-15T17:52:25.268Z,15.40
2022-10-15T17:56:28.475Z,15.40
2022-10-15T18:00:30.226Z,15.40
2022-10-15T18:04:31.926Z,15.40
2022-10-15T18:08:33.740Z,15.40
2022-10-15T18:12:35.531Z,15.30
2022-10-15T18:16:37.777Z,15.20
2022-10-15T18:20:40.901Z,15.10
2022-10-15T18:24:42.668Z,15.20
2022-10-15T18:28:45.190Z,15.10
2022-10-15T18:32:47.109Z,15.10
2022-10-15T18:36:48.904Z,15.10
2022-10-15T18:40:50.890Z,15.00
2022-10-15T18:44:52.805Z,15.00
2022-10-15T18:48:54.487Z,15.00
2022-10-15T18:52:56.080Z,14.90
2022-10-15T18:56:57.660Z,14.90
2022-10-15T19:01:12.780Z,14.90
2022-10-15T19:05:14.711Z,14.80
2022-10-15T19:09:18.159Z,14.90
2022-10-15T19:13:19.751Z,14.90
2022-10-15T19:17:21.373Z,14.90
2022-10-15T19:21:23.042Z,15.00
2022-10-15T19:25:25.127Z,14.90
2022-10-15T19:29:30.329Z,14.90
2022-10-15T19:33:35.233Z,14.90
2022-10-15T19:37:37.279Z,14.80
2022-10-15T19:41:39.806Z,14.70
2022-10-15T19:45:43.233Z,14.60
2022-10-15T19:49:45.146Z,14.60
2022-10-15T19:53:50.416Z,14.60
2022-10-15T19:57:52.252Z,14.60
2022-10-15T20:01:53.932Z,14.50
2022-10-15T20:05:56.153Z,14.50
2022-10-15T20:09:58.428Z,14.40
2022-10-15T20:14:00.385Z,14.40
2022-10-15T20:18:02.029Z,14.40
2022-10-15T20:22:03.704Z,14.40
2022-10-15T20:26:06.522Z,14.30
2022-10-15T20:30:08.824Z,14.20
2022-10-15T20:34:10.583Z,14.10
2022-10-15T20:38:12.855Z,14.10
2022-10-15T20:42:14.509Z,14.10
2022-10-15T20:46:18.711Z,14.10
2022-10-15T20:50:22.807Z,14.00
2022-10-15T20:54:24.514Z,14.00
2022-10-15T20:58:26.329Z,14.10
2022-10-15T21:02:28.688Z,14.10
2022-10-15T21:06:30.843Z,14.10
2022-10-15T21:10:34.347Z,14.20
2022-10-15T21:14:36.427Z,14.20
2022-10-15T21:18:38.939Z,14.20
2022-10-15T21:22:41.804Z,14.20
2022-10-15T21:26:43.929Z,14.20
2022-10-15T21:30:45.630Z,14.10
2022-10-15T21:34:47.435Z,14.10
2022-10-15T21:38:51.916Z,14.10
2022-10-15T21:42:53.516Z,13.90
2022-10-15T21:46:55.361Z,13.90
2022-10-15T21:50:56.995Z,13.80
2022-10-15T21:54:58.774Z,13.70
2022-10-15T21:59:01.207Z,13.60
2022-10-15T22:03:02.938Z,13.60
2022-10-15T22:07:06.594Z,13.50
2022-10-15T22:11:12.724Z,13.50
2022-10-15T22:15:14.386Z,13.40
2022-10-15T22:19:16.445Z,13.40
2022-10-15T22:23:18.041Z,13.40
2022-10-15T22:27:19.616Z,13.40
2022-10-15T22:31:21.365Z,13.50
2022-10-15T22:35:22.985Z,13.50
2022-10-15T22:39:24.918Z,13.50
2022-10-15T22:43:26.517Z,13.60
2022-10-15T22:47:28.263Z,13.70
2022-10-15T22:51:29.832Z,13.80
2022-10-15T22:55:31.570Z,13.90
2022-10-15T22:59:33.544Z,14.00
2022-10-15T23:03:35.434Z,14.00
2022-10-15T23:07:38.184Z,14.10
2022-10-15T23:11:40.228Z,14.10
2022-10-15T23:15:42.027Z,14.10
2022-10-15T23:19:43.657Z,14.10
2022-10-15T23:23:45.892Z,14.10
2022-10-15T23:27:47.487Z,14.10
2022-10-15T23:31:49.742Z,14.10
2022-10-15T23:36:01.362Z,14.10
2022-10-15T23:40:03.122Z,14.10
2022-10-15T23:44:04.842Z,14.10
2022-10-15T23:48:06.535Z,14.10
2022-10-15T23:52:08.642Z,14.10
2022-10-15T23:56:10.262Z,14.10
